sensor_id;sensor_type;location;lat;lon;timestamp;temperature;humidity
210;DHT22;90;48.810;9.120;2022-11-20T00:00:10;6.90;93.70
210;DHT22;90;48.810;9.120;2022-11-20T00:02:38;6.90;93.90
210;DHT22;90;48.810;9.120;2022-11-20T00:05:05;6.80;94.00
210;DHT22;90;48.810;9.120;2022-11-20T00:07:34;6.80;94.00
210;DHT22;90;48.810;9.120;2022-11-20T00:10:01;6.90;94.10
210;DHT22;90;48.810;9.120;2022-11-20T00:12:28;6.90;94.00
210;DHT22;90;48.810;9.120;2022-11-20T00:14:55;7.00;93.80
210;DHT22;90;48.810;9.120;2022-11-20T00:17:22;7.10;93.30
210;DHT22;90;48.810;9.120;2022-11-20T00:19:49;7.10;93.20
210;DHT22;90;48.810;9.120;2022-11-20T00:22:15;7.10;93.20
210;DHT22;90;48.810;9.120;2022-11-20T00:24:44;7.10;93.10
210;DHT22;90;48.810;9.120;2022-11-20T00:27:11;7.10;93.30
210;DHT22;90;48.810;9.120;2022-11-20T00:29:38;7.10;93.10
210;DHT22;90;48.810;9.120;2022-11-20T00:32:06;7.10;92.90
210;DHT22;90;48.810;9.120;2022-11-20T00:34:33;7.10;92.50
210;DHT22;90;48.810;9.120;2022-11-20T00:37:00;7.10;92.50
210;DHT22;90;48.810;9.120;2022-11-20T00:39:27;7.10;92.40
210;DHT22;90;48.810;9.120;2022-11-20T00:41:55;7.10;92.20
210;DHT22;90;48.810;9.120;2022-11-20T00:44:22;7.00;92.10
210;DHT22;90;48.810;9.120;2022-11-20T00:46:49;7.00;92.20
210;DHT22;90;48.810;9.120;2022-11-20T00:49:16;7.10;91.90
210;DHT22;90;48.810;9.120;2022-11-20T00:51:43;7.00;91.70
210;DHT22;90;48.810;9.120;2022-11-20T00:54:10;7.00;91.40
210;DHT22;90;48.810;9.120;2022-11-20T00:56:37;7.00;90.90
210;DHT22;90;48.810;9.120;2022-11-20T00:59:05;7.00;90.80
210;DHT22;90;48.810;9.120;2022-11-20T01:01:32;7.00;90.80
210;DHT22;90;48.810;9.120;2022-11-20T01:04:00;7.00;90.60
210;DHT22;90;48.810;9.120;2022-11-20T01:06:28;7.00;90.30
210;DHT22;90;48.810;9.120;2022-11-20T01:08:59;7.10;90.00
210;DHT22;90;48.810;9.120;2022-11-20T01:11:27;7.20;89.90
210;DHT22;90;48.810;9.120;2022-11-20T01:13:55;7.20;89.90
210;DHT22;90;48.810;9.120;2022-11-20T01:16:26;7.20;89.30
210;DHT22;90;48.810;9.120;2022-11-20T01:18:56;7.20;89.30
210;DHT22;90;48.810;9.120;2022-11-20T01:21:24;7.20;89.10
210;DHT22;90;48.810;9.120;2022-11-20T01:23:52;7.20;88.70
210;DHT22;90;48.810;9.120;2022-11-20T01:26:22;7.10;88.70
210;DHT22;90;48.810;9.120;2022-11-20T01:28:50;7.30;88.50
210;DHT22;90;48.810;9.120;2022-11-20T01:31:18;7.30;88.10
210;DHT22;90;48.810;9.120;2022-11-20T01:33:48;7.30;87.90
210;DHT22;90;48.810;9.120;2022-11-20T01:36:16;7.20;87.50
210;DHT22;90;48.810;9.120;2022-11-20T01:38:44;7.20;88.00
210;DHT22;90;48.810;9.120;2022-11-20T01:41:12;7.20;87.70
210;DHT22;90;48.810;9.120;2022-11-20T01:44:01;7.20;87.60
210;DHT22;90;48.810;9.120;2022-11-20T01:46:27;7.20;87.30
210;DHT22;90;48.810;9.120;2022-11-20T01:49:02;7.20;87.40
210;DHT22;90;48.810;9.120;2022-11-20T01:51:33;7.30;87.90
210;DHT22;90;48.810;9.120;2022-11-20T01:54:04;7.30;87.90
210;DHT22;90;48.810;9.120;2022-11-20T01:56:36;7.40;88.50
210;DHT22;90;48.810;9.120;2022-11-20T01:59:05;7.40;88.60
210;DHT22;90;48.810;9.120;2022-11-20T02:01:33;7.40;88.90
210;DHT22;90;48.810;9.120;2022-11-20T02:04:02;7.40;89.10
210;DHT22;90;48.810;9.120;2022-11-20T02:06:32;7.30;89.40
210;DHT22;90;48.810;9.120;2022-11-20T02:09:01;7.30;89.50
210;DHT22;90;48.810;9.120;2022-11-20T02:11:30;7.20;89.40
210;DHT22;90;48.810;9.120;2022-11-20T02:13:57;7.20;89.30
210;DHT22;90;48.810;9.120;2022-11-20T02:16:24;7.20;89.20
210;DHT22;90;48.810;9.120;2022-11-20T02:18:53;7.10;88.30
210;DHT22;90;48.810;9.120;2022-11-20T02:21:33;7.10;88.40
210;DHT22;90;48.810;9.120;2022-11-20T02:24:06;7.20;87.80
210;DHT22;90;48.810;9.120;2022-11-20T02:26:38;7.10;86.80
210;DHT22;90;48.810;9.120;2022-11-20T02:29:05;7.10;87.30
210;DHT22;90;48.810;9.120;2022-11-20T02:31:38;7.00;87.10
210;DHT22;90;48.810;9.120;2022-11-20T02:34:05;7.00;87.30
210;DHT22;90;48.810;9.120;2022-11-20T02:36:33;7.00;86.80
210;DHT22;90;48.810;9.120;2022-11-20T02:39:04;7.10;86.80
210;DHT22;90;48.810;9.120;2022-11-20T02:41:33;7.20;86.50
210;DHT22;90;48.810;9.120;2022-11-20T02:44:00;7.10;86.20
210;DHT22;90;48.810;9.120;2022-11-20T02:46:27;7.00;86.10
210;DHT22;90;48.810;9.120;2022-11-20T02:48:54;6.90;86.50
210;DHT22;90;48.810;9.120;2022-11-20T02:51:22;6.90;86.60
210;DHT22;90;48.810;9.120;2022-11-20T02:53:49;6.90;86.30
210;DHT22;90;48.810;9.120;2022-11-20T02:56:18;6.80;86.30
210;DHT22;90;48.810;9.120;2022-11-20T02:58:45;6.80;86.70
210;DHT22;90;48.810;9.120;2022-11-20T03:01:12;6.80;86.40
210;DHT22;90;48.810;9.120;2022-11-20T03:03:39;6.70;86.50
210;DHT22;90;48.810;9.120;2022-11-20T03:06:07;6.70;86.40
210;DHT22;90;48.810;9.120;2022-11-20T03:08:34;6.80;86.50
210;DHT22;90;48.810;9.120;2022-11-20T03:11:05;6.80;86.70
210;DHT22;90;48.810;9.120;2022-11-20T03:13:34;6.80;86.50
210;DHT22;90;48.810;9.120;2022-11-20T03:16:10;6.80;86.10
210;DHT22;90;48.810;9.120;2022-11-20T03:18:38;6.80;86.20
210;DHT22;90;48.810;9.120;2022-11-20T03:21:05;6.80;86.60
210;DHT22;90;48.810;9.120;2022-11-20T03:23:33;6.70;86.00
210;DHT22;90;48.810;9.120;2022-11-20T03:26:11;6.70;86.40
210;DHT22;90;48.810;9.120;2022-11-20T03:28:40;6.70;86.50
210;DHT22;90;48.810;9.120;2022-11-20T03:31:08;6.60;86.70
210;DHT22;90;48.810;9.120;2022-11-20T03:33:35;6.60;86.60
210;DHT22;90;48.810;9.120;2022-11-20T03:36:03;6.60;86.90
210;DHT22;90;48.810;9.120;2022-11-20T03:38:30;6.60;87.00
210;DHT22;90;48.810;9.120;2022-11-20T03:41:00;6.60;86.80
210;DHT22;90;48.810;9.120;2022-11-20T03:43:27;6.50;87.00
210;DHT22;90;48.810;9.120;2022-11-20T03:45:56;6.60;87.00
210;DHT22;90;48.810;9.120;2022-11-20T03:48:23;6.60;87.10
210;DHT22;90;48.810;9.120;2022-11-20T03:50:50;6.60;86.90
210;DHT22;90;48.810;9.120;2022-11-20T03:53:17;6.60;87.30
210;DHT22;90;48.810;9.120;2022-11-20T03:55:44;6.60;87.40
210;DHT22;90;48.810;9.120;2022-11-20T03:58:11;6.60;87.00
210;DHT22;90;48.810;9.120;2022-11-20T04:00:39;6.60;87.10
210;DHT22;90;48.810;9.120;2022-11-20T04:03:07;6.70;88.60
210;DHT22;90;48.810;9.120;2022-11-20T04:05:34;6.60;87.20
210;DHT22;90;48.810;9.120;2022-11-20T04:08:01;6.60;86.80
210;DHT22;90;48.810;9.120;2022-11-20T04:10:28;6.60;87.20
210;DHT22;90;48.810;9.120;2022-11-20T04:12:55;6.60;87.10
210;DHT22;90;48.810;9.120;2022-11-20T04:15:22;6.50;87.20
210;DHT22;90;48.810;9.120;2022-11-20T04:17:49;6.60;87.20
210;DHT22;90;48.810;9.120;2022-11-20T04:20:17;6.60;87.00
210;DHT22;90;48.810;9.120;2022-11-20T04:22:44;6.60;86.70
210;DHT22;90;48.810;9.120;2022-11-20T04:25:11;6.60;86.80
210;DHT22;90;48.810;9.120;2022-11-20T04:27:38;6.50;86.60
210;DHT22;90;48.810;9.120;2022-11-20T04:30:08;6.60;86.70
210;DHT22;90;48.810;9.120;2022-11-20T04:32:35;6.50;86.60
210;DHT22;90;48.810;9.120;2022-11-20T04:35:02;6.50;86.80
210;DHT22;90;48.810;9.120;2022-11-20T04:37:30;6.50;86.70
210;DHT22;90;48.810;9.120;2022-11-20T04:39:57;6.50;86.80
210;DHT22;90;48.810;9.120;2022-11-20T04:42:24;6.60;86.90
210;DHT22;90;48.810;9.120;2022-11-20T04:44:57;6.60;86.70
210;DHT22;90;48.810;9.120;2022-11-20T04:47:24;6.60;86.60
210;DHT22;90;48.810;9.120;2022-11-20T04:49:51;6.70;86.20
210;DHT22;90;48.810;9.120;2022-11-20T04:52:19;6.60;86.40
210;DHT22;90;48.810;9.120;2022-11-20T04:54:48;6.70;86.30
210;DHT22;90;48.810;9.120;2022-11-20T04:57:18;6.70;86.40
210;DHT22;90;48.810;9.120;2022-11-20T04:59:45;6.80;86.40
210;DHT22;90;48.810;9.120;2022-11-20T05:02:12;6.80;86.20
210;DHT22;90;48.810;9.120;2022-11-20T05:04:39;6.90;86.00
210;DHT22;90;48.810;9.120;2022-11-20T05:07:07;6.90;85.50
210;DHT22;90;48.810;9.120;2022-11-20T05:09:33;6.90;85.80
210;DHT22;90;48.810;9.120;2022-11-20T05:12:02;6.80;85.90
210;DHT22;90;48.810;9.120;2022-11-20T05:14:29;6.80;86.20
210;DHT22;90;48.810;9.120;2022-11-20T05:16:56;6.70;86.40
210;DHT22;90;48.810;9.120;2022-11-20T05:19:23;6.70;86.50
210;DHT22;90;48.810;9.120;2022-11-20T05:21:50;6.70;86.60
210;DHT22;90;48.810;9.120;2022-11-20T05:24:17;6.70;86.80
210;DHT22;90;48.810;9.120;2022-11-20T05:26:44;6.80;86.70
210;DHT22;90;48.810;9.120;2022-11-20T05:29:13;6.90;86.10
210;DHT22;90;48.810;9.120;2022-11-20T05:31:40;6.80;86.10
210;DHT22;90;48.810;9.120;2022-11-20T05:34:07;6.80;86.30
210;DHT22;90;48.810;9.120;2022-11-20T05:36:34;6.80;86.50
210;DHT22;90;48.810;9.120;2022-11-20T05:39:01;6.80;86.30
210;DHT22;90;48.810;9.120;2022-11-20T05:41:28;6.80;86.60
210;DHT22;90;48.810;9.120;2022-11-20T05:43:56;6.80;86.60
210;DHT22;90;48.810;9.120;2022-11-20T05:46:25;6.80;86.60
210;DHT22;90;48.810;9.120;2022-11-20T05:48:52;6.90;86.50
210;DHT22;90;48.810;9.120;2022-11-20T05:51:19;6.90;86.10
210;DHT22;90;48.810;9.120;2022-11-20T05:53:46;6.90;86.20
210;DHT22;90;48.810;9.120;2022-11-20T05:56:15;6.90;86.30
210;DHT22;90;48.810;9.120;2022-11-20T05:58:43;6.90;86.70
210;DHT22;90;48.810;9.120;2022-11-20T06:01:12;6.90;86.40
210;DHT22;90;48.810;9.120;2022-11-20T06:03:41;6.90;86.40
210;DHT22;90;48.810;9.120;2022-11-20T06:06:12;6.90;86.50
210;DHT22;90;48.810;9.120;2022-11-20T06:08:39;6.90;86.50
210;DHT22;90;48.810;9.120;2022-11-20T06:11:08;6.90;86.50
210;DHT22;90;48.810;9.120;2022-11-20T06:13:35;7.00;85.70
210;DHT22;90;48.810;9.120;2022-11-20T06:16:03;7.10;88.40
210;DHT22;90;48.810;9.120;2022-11-20T06:18:30;7.10;89.00
210;DHT22;90;48.810;9.120;2022-11-20T06:21:03;7.40;88.30
210;DHT22;90;48.810;9.120;2022-11-20T06:23:31;7.40;85.90
210;DHT22;90;48.810;9.120;2022-11-20T06:26:02;7.10;85.00
210;DHT22;90;48.810;9.120;2022-11-20T06:28:29;7.10;85.10
210;DHT22;90;48.810;9.120;2022-11-20T06:30:56;7.10;85.40
210;DHT22;90;48.810;9.120;2022-11-20T06:33:26;7.30;92.70
210;DHT22;90;48.810;9.120;2022-11-20T06:35:56;7.60;91.60
210;DHT22;90;48.810;9.120;2022-11-20T06:38:25;7.60;91.10
210;DHT22;90;48.810;9.120;2022-11-20T06:40:52;7.60;85.10
210;DHT22;90;48.810;9.120;2022-11-20T06:43:19;7.50;84.10
210;DHT22;90;48.810;9.120;2022-11-20T06:45:52;7.40;84.30
210;DHT22;90;48.810;9.120;2022-11-20T06:48:21;7.40;85.50
210;DHT22;90;48.810;9.120;2022-11-20T06:50:48;7.40;84.80
210;DHT22;90;48.810;9.120;2022-11-20T06:53:16;7.40;84.40
210;DHT22;90;48.810;9.120;2022-11-20T06:55:44;7.30;83.90
210;DHT22;90;48.810;9.120;2022-11-20T06:58:12;7.30;84.30
210;DHT22;90;48.810;9.120;2022-11-20T07:00:39;7.20;84.00
210;DHT22;90;48.810;9.120;2022-11-20T07:03:08;7.20;84.10
210;DHT22;90;48.810;9.120;2022-11-20T07:05:36;7.10;84.60
210;DHT22;90;48.810;9.120;2022-11-20T07:08:04;7.10;84.50
210;DHT22;90;48.810;9.120;2022-11-20T07:10:32;7.10;84.80
210;DHT22;90;48.810;9.120;2022-11-20T07:13:00;7.10;84.70
210;DHT22;90;48.810;9.120;2022-11-20T07:15:27;7.10;84.70
210;DHT22;90;48.810;9.120;2022-11-20T07:17:54;7.00;84.80
210;DHT22;90;48.810;9.120;2022-11-20T07:20:21;7.10;84.90
210;DHT22;90;48.810;9.120;2022-11-20T07:22:53;7.10;84.90
210;DHT22;90;48.810;9.120;2022-11-20T07:25:20;7.10;84.70
210;DHT22;90;48.810;9.120;2022-11-20T07:27:47;7.10;84.70
210;DHT22;90;48.810;9.120;2022-11-20T07:30:17;7.10;84.60
210;DHT22;90;48.810;9.120;2022-11-20T07:32:47;7.10;84.70
210;DHT22;90;48.810;9.120;2022-11-20T07:35:14;7.10;84.70
210;DHT22;90;48.810;9.120;2022-11-20T07:37:41;7.10;85.00
210;DHT22;90;48.810;9.120;2022-11-20T07:40:10;7.20;84.70
210;DHT22;90;48.810;9.120;2022-11-20T07:42:37;7.20;84.70
210;DHT22;90;48.810;9.120;2022-11-20T07:45:05;7.20;84.60
210;DHT22;90;48.810;9.120;2022-11-20T07:47:36;7.30;84.90
210;DHT22;90;48.810;9.120;2022-11-20T07:50:04;7.20;85.70
210;DHT22;90;48.810;9.120;2022-11-20T07:52:31;7.30;85.60
210;DHT22;90;48.810;9.120;2022-11-20T07:54:58;7.30;85.60
210;DHT22;90;48.810;9.120;2022-11-20T07:57:25;7.60;86.70
210;DHT22;90;48.810;9.120;2022-11-20T07:59:52;7.50;85.00
210;DHT22;90;48.810;9.120;2022-11-20T08:02:19;7.50;84.60
210;DHT22;90;48.810;9.120;2022-11-20T08:04:47;7.50;84.60
210;DHT22;90;48.810;9.120;2022-11-20T08:07:14;7.50;84.60
210;DHT22;90;48.810;9.120;2022-11-20T08:09:41;7.50;84.30
210;DHT22;90;48.810;9.120;2022-11-20T08:12:17;7.40;84.50
210;DHT22;90;48.810;9.120;2022-11-20T08:15:03;7.40;85.10
210;DHT22;90;48.810;9.120;2022-11-20T08:17:30;7.40;85.60
210;DHT22;90;48.810;9.120;2022-11-20T08:19:58;7.90;89.70
210;DHT22;90;48.810;9.120;2022-11-20T08:22:25;7.80;84.20
210;DHT22;90;48.810;9.120;2022-11-20T08:24:52;7.80;83.80
210;DHT22;90;48.810;9.120;2022-11-20T08:27:24;7.70;84.40
210;DHT22;90;48.810;9.120;2022-11-20T08:29:52;7.70;84.40
210;DHT22;90;48.810;9.120;2022-11-20T08:32:19;7.70;84.70
210;DHT22;90;48.810;9.120;2022-11-20T08:34:46;7.60;84.40
210;DHT22;90;48.810;9.120;2022-11-20T08:37:17;7.60;84.70
210;DHT22;90;48.810;9.120;2022-11-20T08:39:44;7.70;84.80
210;DHT22;90;48.810;9.120;2022-11-20T08:42:12;7.70;84.30
210;DHT22;90;48.810;9.120;2022-11-20T08:44:39;7.80;84.10
210;DHT22;90;48.810;9.120;2022-11-20T08:47:06;7.80;84.00
210;DHT22;90;48.810;9.120;2022-11-20T08:49:33;7.80;83.80
210;DHT22;90;48.810;9.120;2022-11-20T08:52:01;7.90;83.60
210;DHT22;90;48.810;9.120;2022-11-20T08:54:29;7.90;83.30
210;DHT22;90;48.810;9.120;2022-11-20T08:56:56;7.90;83.90
210;DHT22;90;48.810;9.120;2022-11-20T08:59:23;7.90;83.50
210;DHT22;90;48.810;9.120;2022-11-20T09:01:50;7.90;83.60
210;DHT22;90;48.810;9.120;2022-11-20T09:04:20;8.00;83.30
210;DHT22;90;48.810;9.120;2022-11-20T09:06:47;7.90;83.40
210;DHT22;90;48.810;9.120;2022-11-20T09:09:16;8.00;83.90
210;DHT22;90;48.810;9.120;2022-11-20T09:11:45;8.00;83.80
210;DHT22;90;48.810;9.120;2022-11-20T09:14:15;8.00;83.40
210;DHT22;90;48.810;9.120;2022-11-20T09:16:44;8.00;83.70
210;DHT22;90;48.810;9.120;2022-11-20T09:19:12;8.00;83.70
210;DHT22;90;48.810;9.120;2022-11-20T09:21:40;8.00;83.70
210;DHT22;90;48.810;9.120;2022-11-20T09:24:07;8.90;96.60
210;DHT22;90;48.810;9.120;2022-11-20T09:26:34;10.20;95.70
210;DHT22;90;48.810;9.120;2022-11-20T09:29:02;10.50;81.50
210;DHT22;90;48.810;9.120;2022-11-20T09:31:29;10.10;77.60
210;DHT22;90;48.810;9.120;2022-11-20T09:33:57;9.40;78.10
210;DHT22;90;48.810;9.120;2022-11-20T09:36:24;9.00;79.50
210;DHT22;90;48.810;9.120;2022-11-20T09:38:52;8.80;80.60
210;DHT22;90;48.810;9.120;2022-11-20T09:41:39;8.70;81.60
210;DHT22;90;48.810;9.120;2022-11-20T09:44:24;8.50;82.50
210;DHT22;90;48.810;9.120;2022-11-20T09:46:57;8.40;82.70
210;DHT22;90;48.810;9.120;2022-11-20T09:49:35;8.30;83.30
210;DHT22;90;48.810;9.120;2022-11-20T09:52:16;8.10;84.00
210;DHT22;90;48.810;9.120;2022-11-20T09:54:49;8.10;83.90
210;DHT22;90;48.810;9.120;2022-11-20T09:57:20;8.00;84.10
210;DHT22;90;48.810;9.120;2022-11-20T09:59:54;8.00;84.30
210;DHT22;90;48.810;9.120;2022-11-20T10:02:28;8.00;84.50
210;DHT22;90;48.810;9.120;2022-11-20T10:05:03;8.00;84.40
210;DHT22;90;48.810;9.120;2022-11-20T10:07:38;8.00;84.40
210;DHT22;90;48.810;9.120;2022-11-20T10:10:15;8.00;84.30
210;DHT22;90;48.810;9.120;2022-11-20T10:12:54;8.00;84.30
210;DHT22;90;48.810;9.120;2022-11-20T10:15:34;7.90;84.80
210;DHT22;90;48.810;9.120;2022-11-20T10:18:15;7.90;84.80
210;DHT22;90;48.810;9.120;2022-11-20T10:20:51;7.90;85.10
210;DHT22;90;48.810;9.120;2022-11-20T10:23:41;7.80;85.90
210;DHT22;90;48.810;9.120;2022-11-20T10:26:17;7.70;86.90
210;DHT22;90;48.810;9.120;2022-11-20T10:29:01;7.70;88.10
210;DHT22;90;48.810;9.120;2022-11-20T10:31:36;7.60;88.80
210;DHT22;90;48.810;9.120;2022-11-20T10:34:06;7.50;90.00
210;DHT22;90;48.810;9.120;2022-11-20T10:36:43;7.50;90.80
210;DHT22;90;48.810;9.120;2022-11-20T10:39:17;7.50;91.40
210;DHT22;90;48.810;9.120;2022-11-20T10:41:48;7.50;91.70
210;DHT22;90;48.810;9.120;2022-11-20T10:44:17;7.50;92.20
210;DHT22;90;48.810;9.120;2022-11-20T10:47:13;7.50;92.50
210;DHT22;90;48.810;9.120;2022-11-20T10:49:41;7.50;92.10
210;DHT22;90;48.810;9.120;2022-11-20T10:52:12;7.40;92.80
210;DHT22;90;48.810;9.120;2022-11-20T10:54:47;7.50;93.50
210;DHT22;90;48.810;9.120;2022-11-20T10:57:24;7.40;93.70
210;DHT22;90;48.810;9.120;2022-11-20T11:00:02;7.50;93.80
210;DHT22;90;48.810;9.120;2022-11-20T11:02:39;7.50;93.60
210;DHT22;90;48.810;9.120;2022-11-20T11:05:20;7.60;93.50
210;DHT22;90;48.810;9.120;2022-11-20T11:07:51;7.70;93.40
210;DHT22;90;48.810;9.120;2022-11-20T11:10:24;7.70;93.00
210;DHT22;90;48.810;9.120;2022-11-20T11:12:53;7.60;93.10
210;DHT22;90;48.810;9.120;2022-11-20T11:15:28;7.70;92.60
210;DHT22;90;48.810;9.120;2022-11-20T11:17:57;7.70;92.40
210;DHT22;90;48.810;9.120;2022-11-20T11:20:25;7.60;92.90
210;DHT22;90;48.810;9.120;2022-11-20T11:22:54;7.70;92.90
210;DHT22;90;48.810;9.120;2022-11-20T11:25:25;7.70;92.90
210;DHT22;90;48.810;9.120;2022-11-20T11:27:53;7.90;93.10
210;DHT22;90;48.810;9.120;2022-11-20T11:30:23;8.20;92.90
210;DHT22;90;48.810;9.120;2022-11-20T11:32:50;8.50;91.80
210;DHT22;90;48.810;9.120;2022-11-20T11:35:24;8.70;91.10
210;DHT22;90;48.810;9.120;2022-11-20T11:37:52;8.90;90.10
210;DHT22;90;48.810;9.120;2022-11-20T11:40:22;9.00;89.30
210;DHT22;90;48.810;9.120;2022-11-20T11:42:55;9.00;89.70
210;DHT22;90;48.810;9.120;2022-11-20T11:45:23;9.00;86.60
210;DHT22;90;48.810;9.120;2022-11-20T11:47:51;9.10;85.80
210;DHT22;90;48.810;9.120;2022-11-20T11:50:22;9.10;86.00
210;DHT22;90;48.810;9.120;2022-11-20T11:53:03;9.10;85.20
210;DHT22;90;48.810;9.120;2022-11-20T11:55:36;9.10;84.60
210;DHT22;90;48.810;9.120;2022-11-20T11:58:14;8.90;85.30
210;DHT22;90;48.810;9.120;2022-11-20T12:00:51;8.90;85.30
210;DHT22;90;48.810;9.120;2022-11-20T12:03:21;9.00;84.30
210;DHT22;90;48.810;9.120;2022-11-20T12:05:56;9.20;84.50
210;DHT22;90;48.810;9.120;2022-11-20T12:08:26;9.20;84.40
210;DHT22;90;48.810;9.120;2022-11-20T12:10:57;9.10;83.20
210;DHT22;90;48.810;9.120;2022-11-20T12:13:41;9.10;83.30
210;DHT22;90;48.810;9.120;2022-11-20T12:16:13;9.30;78.00
210;DHT22;90;48.810;9.120;2022-11-20T12:18:40;9.30;76.90
210;DHT22;90;48.810;9.120;2022-11-20T12:21:18;9.30;75.60
210;DHT22;90;48.810;9.120;2022-11-20T12:24:04;9.30;76.20
210;DHT22;90;48.810;9.120;2022-11-20T12:26:46;9.20;75.60
210;DHT22;90;48.810;9.120;2022-11-20T12:29:28;9.10;76.60
210;DHT22;90;48.810;9.120;2022-11-20T12:32:20;9.20;74.60
210;DHT22;90;48.810;9.120;2022-11-20T12:34:59;9.30;75.20
210;DHT22;90;48.810;9.120;2022-11-20T12:37:38;9.40;74.60
210;DHT22;90;48.810;9.120;2022-11-20T12:40:22;9.70;74.20
210;DHT22;90;48.810;9.120;2022-11-20T12:42:58;9.80;72.30
210;DHT22;90;48.810;9.120;2022-11-20T12:45:56;9.90;70.90
210;DHT22;90;48.810;9.120;2022-11-20T12:48:51;10.00;70.90
210;DHT22;90;48.810;9.120;2022-11-20T12:51:33;10.10;71.70
210;DHT22;90;48.810;9.120;2022-11-20T12:54:20;10.00;70.70
210;DHT22;90;48.810;9.120;2022-11-20T12:56:57;10.10;71.40
210;DHT22;90;48.810;9.120;2022-11-20T12:59:39;10.10;71.10
210;DHT22;90;48.810;9.120;2022-11-20T13:02:23;9.90;70.70
210;DHT22;90;48.810;9.120;2022-11-20T13:05:11;9.80;71.50
210;DHT22;90;48.810;9.120;2022-11-20T13:07:42;9.60;71.70
210;DHT22;90;48.810;9.120;2022-11-20T13:10:18;9.60;73.10
210;DHT22;90;48.810;9.120;2022-11-20T13:12:51;9.50;73.20
210;DHT22;90;48.810;9.120;2022-11-20T13:15:36;9.50;72.30
210;DHT22;90;48.810;9.120;2022-11-20T13:18:09;9.60;71.00
210;DHT22;90;48.810;9.120;2022-11-20T13:20:41;9.50;69.80
210;DHT22;90;48.810;9.120;2022-11-20T13:23:09;9.40;70.50
210;DHT22;90;48.810;9.120;2022-11-20T13:25:39;9.50;71.50
210;DHT22;90;48.810;9.120;2022-11-20T13:28:26;9.70;70.30
210;DHT22;90;48.810;9.120;2022-11-20T13:30:54;9.90;69.30
210;DHT22;90;48.810;9.120;2022-11-20T13:33:25;10.10;68.30
210;DHT22;90;48.810;9.120;2022-11-20T13:35:59;10.10;66.80
210;DHT22;90;48.810;9.120;2022-11-20T13:38:26;10.10;66.90
210;DHT22;90;48.810;9.120;2022-11-20T13:40:56;10.00;66.60
210;DHT22;90;48.810;9.120;2022-11-20T13:43:33;9.80;67.20
210;DHT22;90;48.810;9.120;2022-11-20T13:46:02;9.40;68.50
210;DHT22;90;48.810;9.120;2022-11-20T13:48:32;9.40;68.50
210;DHT22;90;48.810;9.120;2022-11-20T13:51:23;9.20;69.20
210;DHT22;90;48.810;9.120;2022-11-20T13:57:02;9.10;71.10
210;DHT22;90;48.810;9.120;2022-11-20T13:59:43;9.10;71.20
210;DHT22;90;48.810;9.120;2022-11-20T14:02:14;9.20;71.10
210;DHT22;90;48.810;9.120;2022-11-20T14:04:46;9.20;71.90
210;DHT22;90;48.810;9.120;2022-11-20T14:07:15;9.00;71.70
210;DHT22;90;48.810;9.120;2022-11-20T14:09:50;9.00;72.50
210;DHT22;90;48.810;9.120;2022-11-20T14:12:21;8.80;73.50
210;DHT22;90;48.810;9.120;2022-11-20T14:14:49;8.80;74.20
210;DHT22;90;48.810;9.120;2022-11-20T14:17:19;8.80;74.30
210;DHT22;90;48.810;9.120;2022-11-20T14:19:47;8.70;75.00
210;DHT22;90;48.810;9.120;2022-11-20T14:22:20;8.70;75.40
210;DHT22;90;48.810;9.120;2022-11-20T14:24:47;8.70;75.60
210;DHT22;90;48.810;9.120;2022-11-20T14:27:17;8.70;75.90
210;DHT22;90;48.810;9.120;2022-11-20T14:29:48;8.60;76.10
210;DHT22;90;48.810;9.120;2022-11-20T14:32:17;8.70;76.10
210;DHT22;90;48.810;9.120;2022-11-20T14:34:46;8.60;76.30
210;DHT22;90;48.810;9.120;2022-11-20T14:37:19;8.50;76.60
210;DHT22;90;48.810;9.120;2022-11-20T14:39:50;8.50;76.90
210;DHT22;90;48.810;9.120;2022-11-20T14:42:20;8.50;76.70
210;DHT22;90;48.810;9.120;2022-11-20T14:44:50;8.50;76.80
210;DHT22;90;48.810;9.120;2022-11-20T14:47:21;8.50;77.00
210;DHT22;90;48.810;9.120;2022-11-20T14:49:49;8.60;77.80
210;DHT22;90;48.810;9.120;2022-11-20T14:52:18;8.50;78.10
210;DHT22;90;48.810;9.120;2022-11-20T14:54:46;8.50;78.30
210;DHT22;90;48.810;9.120;2022-11-20T14:57:23;8.50;78.40
210;DHT22;90;48.810;9.120;2022-11-20T15:00:03;8.50;78.40
210;DHT22;90;48.810;9.120;2022-11-20T15:02:30;8.50;78.70
210;DHT22;90;48.810;9.120;2022-11-20T15:04:58;8.50;78.90
210;DHT22;90;48.810;9.120;2022-11-20T15:07:30;8.40;78.80
210;DHT22;90;48.810;9.120;2022-11-20T15:10:02;8.40;78.80
210;DHT22;90;48.810;9.120;2022-11-20T15:14:59;8.40;78.80
210;DHT22;90;48.810;9.120;2022-11-20T15:17:26;8.30;78.30
210;DHT22;90;48.810;9.120;2022-11-20T15:19:54;8.70;80.10
210;DHT22;90;48.810;9.120;2022-11-20T15:22:21;8.90;75.10
210;DHT22;90;48.810;9.120;2022-11-20T15:24:48;8.80;75.20
210;DHT22;90;48.810;9.120;2022-11-20T15:27:15;8.60;76.30
210;DHT22;90;48.810;9.120;2022-11-20T15:29:43;8.60;75.20
210;DHT22;90;48.810;9.120;2022-11-20T15:32:12;8.60;76.20
210;DHT22;90;48.810;9.120;2022-11-20T15:34:39;8.50;76.70
210;DHT22;90;48.810;9.120;2022-11-20T15:37:06;8.40;77.70
210;DHT22;90;48.810;9.120;2022-11-20T15:39:34;8.30;78.10
210;DHT22;90;48.810;9.120;2022-11-20T15:42:01;8.30;77.70
210;DHT22;90;48.810;9.120;2022-11-20T15:44:29;8.20;78.70
210;DHT22;90;48.810;9.120;2022-11-20T15:46:56;8.00;79.40
210;DHT22;90;48.810;9.120;2022-11-20T15:49:24;8.00;79.80
210;DHT22;90;48.810;9.120;2022-11-20T15:51:51;8.00;79.30
210;DHT22;90;48.810;9.120;2022-11-20T15:54:21;8.00;79.50
210;DHT22;90;48.810;9.120;2022-11-20T15:56:48;8.00;79.50
210;DHT22;90;48.810;9.120;2022-11-20T15:59:18;7.90;79.70
210;DHT22;90;48.810;9.120;2022-11-20T16:01:45;7.90;80.00
210;DHT22;90;48.810;9.120;2022-11-20T16:04:13;7.80;80.50
210;DHT22;90;48.810;9.120;2022-11-20T16:06:41;7.80;80.40
210;DHT22;90;48.810;9.120;2022-11-20T16:09:09;7.70;80.60
210;DHT22;90;48.810;9.120;2022-11-20T16:11:36;7.80;80.30
210;DHT22;90;48.810;9.120;2022-11-20T16:14:03;7.80;80.50
210;DHT22;90;48.810;9.120;2022-11-20T16:16:48;7.70;80.70
210;DHT22;90;48.810;9.120;2022-11-20T16:19:15;7.80;80.90
210;DHT22;90;48.810;9.120;2022-11-20T16:21:45;7.80;80.90
210;DHT22;90;48.810;9.120;2022-11-20T16:24:13;7.70;81.00
210;DHT22;90;48.810;9.120;2022-11-20T16:26:43;7.70;81.10
210;DHT22;90;48.810;9.120;2022-11-20T16:29:10;7.70;81.40
210;DHT22;90;48.810;9.120;2022-11-20T16:31:37;7.70;81.60
210;DHT22;90;48.810;9.120;2022-11-20T16:34:05;7.60;81.90
210;DHT22;90;48.810;9.120;2022-11-20T16:36:33;7.70;81.90
210;DHT22;90;48.810;9.120;2022-11-20T16:39:03;7.70;81.90
210;DHT22;90;48.810;9.120;2022-11-20T16:41:31;7.80;81.70
210;DHT22;90;48.810;9.120;2022-11-20T16:44:00;8.20;93.60
210;DHT22;90;48.810;9.120;2022-11-20T16:46:30;8.30;86.30
210;DHT22;90;48.810;9.120;2022-11-20T16:48:58;8.20;81.90
210;DHT22;90;48.810;9.120;2022-11-20T16:51:27;8.20;81.70
210;DHT22;90;48.810;9.120;2022-11-20T16:53:56;8.20;81.20
210;DHT22;90;48.810;9.120;2022-11-20T16:56:25;8.10;81.00
210;DHT22;90;48.810;9.120;2022-11-20T16:58:55;7.90;81.60
210;DHT22;90;48.810;9.120;2022-11-20T17:01:25;7.80;81.80
210;DHT22;90;48.810;9.120;2022-11-20T17:03:55;7.80;81.90
210;DHT22;90;48.810;9.120;2022-11-20T17:06:27;7.70;82.30
210;DHT22;90;48.810;9.120;2022-11-20T17:08:55;7.70;82.30
210;DHT22;90;48.810;9.120;2022-11-20T17:11:25;7.60;82.40
210;DHT22;90;48.810;9.120;2022-11-20T17:13:53;7.60;82.80
210;DHT22;90;48.810;9.120;2022-11-20T17:16:22;7.70;82.50
210;DHT22;90;48.810;9.120;2022-11-20T17:18:50;7.70;82.40
210;DHT22;90;48.810;9.120;2022-11-20T17:21:20;7.70;82.30
210;DHT22;90;48.810;9.120;2022-11-20T17:23:50;7.70;82.70
210;DHT22;90;48.810;9.120;2022-11-20T17:26:18;7.70;82.70
210;DHT22;90;48.810;9.120;2022-11-20T17:28:52;7.70;82.70
210;DHT22;90;48.810;9.120;2022-11-20T17:31:20;7.70;82.30
210;DHT22;90;48.810;9.120;2022-11-20T17:33:48;7.70;82.40